Portada
METAR-TAF:

METAR-TAF

Aeroports :

Tumbes, Perú

latitud: 03-33S, longitud: 080-24W, altitud: 25 m

Observació

L'informe es va fer fa 7 hores i 58 minuts, a les 03:00 UTC
Vent 3 kt del Sud-Est
Temperatura 26°C
Humitat 79%
Pressió 1011 hPa
Visibilitat: 7000 m
Escasses núvols a una alçada de 1400 ft
Cel ennuvolat a una alçada de 2000 ft
plugim

METAR: SPME 140300Z 13003KT 7000 -DZ FEW014 BKN020 26/22 Q1011 RMK BIRD HAZARD RWY 32/14 PPTRZ

Hora: 05:58 (10:58 UTC)

Pronòstic

L'informe es va fer fa 11 hores i 58 minuts, a les 23:00 UTC
Pronòstic vàlid del 14 a les 00 UTC al 14 a les 24 UTC
Vent 5 kt del Oest
Visibilitat 10 km o més
Cel ennuvolat a una alçada de 2500 ft
Temporalment
l' 14 a les 10 UTC al 14 a les 12 UTC
Cel ennuvolat a una alçada de 1400 ft
Evolucionant progressivament
l' 14 a les 13 UTC al 14 a les 15 UTC
Vent 10 kt del Nord

TAF: SPME 132300Z 1400/1424 27005KT 9999 BKN025 TX31/1419Z TN23/1411Z TEMPO 1410/1412 BKN014 BECMG 1413/1415 36010KT

Observacions i pronòstics meteorològics de més de 4000 aeroports (METAR i TAF).

Les estacions disponibles són els punts grocs i vermells al mapa.

Posi el ratolí al punt desitjat per veure el nom de l'estació.

Feu clic per veure les observacions i els pronòstics meteorològics.

Per canviar el mapa: feu clic els botons verds amb una creu de color negre per apropar; al botó verd amb un guió per allunyar la imatge; o en les fletxes verdes per a mapes adjacents.


METAR-TAF: